Time;durP1;ratioP1;P1;durP2;ratioP2;P2;SDS_P1;SDS_P2;PMS_P1;PMS_P2;Temp;Humidity;BMP_temperature;BMP_pressure;BME280_temperature;BME280_humidity;BME280_pressure;Samples;Min_cycle;Max_cycle;Signal;HPM_P1;HPM_P2
2021/11/10 00:00:08;;;;;;;2.93;1.40;;;;;;;;;;5093565;28;20424;-64
2021/11/10 00:02:35;;;;;;;5.57;1.50;;;;;;;;;;5091234;28;20031;-64
2021/11/10 00:05:02;;;;;;;2.00;1.30;;;;;;;;;;5088719;28;20454;-64
2021/11/10 00:07:28;;;;;;;1.70;1.23;;;;;;;;;;5088586;28;20036;-65
2021/11/10 00:09:55;;;;;;;1.87;1.20;;;;;;;;;;5088178;28;20032;-64
2021/11/10 00:12:22;;;;;;;2.63;1.50;;;;;;;;;;5089818;28;20073;-64
2021/11/10 00:14:49;;;;;;;3.37;1.53;;;;;;;;;;5093219;28;20032;-64
2021/11/10 00:17:16;;;;;;;2.13;1.10;;;;;;;;;;5093753;28;20356;-64
2021/11/10 00:19:42;;;;;;;3.03;1.60;;;;;;;;;;5092337;28;20032;-63
2021/11/10 00:22:09;;;;;;;1.73;1.27;;;;;;;;;;5093451;28;20028;-63
2021/11/10 00:24:36;;;;;;;1.53;1.13;;;;;;;;;;5091399;28;20024;-63
2021/11/10 00:27:04;;;;;;;2.40;1.27;;;;;;;;;;5087939;28;20051;-65
2021/11/10 00:29:35;;;;;;;2.60;1.40;;;;;;;;;;5088040;28;20044;-64
2021/11/10 00:32:02;;;;;;;1.50;1.10;;;;;;;;;;5085948;28;20032;-63
2021/11/10 00:34:30;;;;;;;2.10;1.17;;;;;;;;;;5089066;28;20436;-63
2021/11/10 00:36:57;;;;;;;2.83;1.27;;;;;;;;;;5093284;28;20019;-62
2021/11/10 00:39:30;;;;;;;3.13;1.40;;;;;;;;;;5092362;28;20467;-62
2021/11/10 00:42:00;;;;;;;4.03;1.50;;;;;;;;;;5093147;28;20425;-64
2021/11/10 00:44:36;;;;;;;2.20;1.10;;;;;;;;;;5091232;28;20038;-63
2021/11/10 00:47:03;;;;;;;2.70;1.20;;;;;;;;;;5090753;28;20033;-64
2021/11/10 00:49:34;;;;;;;2.47;1.40;;;;;;;;;;5087261;28;20046;-64
2021/11/10 00:52:02;;;;;;;3.57;1.47;;;;;;;;;;5087684;28;20038;-62
2021/11/10 00:54:31;;;;;;;3.17;1.40;;;;;;;;;;5086891;28;20114;-65
2021/11/10 00:56:59;;;;;;;2.67;1.27;;;;;;;;;;5088801;28;20028;-63
2021/11/10 00:59:27;;;;;;;1.57;1.03;;;;;;;;;;5091663;28;20040;-64
2021/11/10 01:01:55;;;;;;;2.73;1.40;;;;;;;;;;5092236;28;20020;-64
2021/11/10 01:04:23;;;;;;;2.70;1.30;;;;;;;;;;5091992;28;20027;-63
2021/11/10 01:07:03;;;;;;;2.77;1.80;;;;;;;;;;5092364;28;20020;-65
2021/11/10 01:09:38;;;;;;;4.37;1.50;;;;;;;;;;5089959;28;20070;-67
2021/11/10 01:12:19;;;;;;;2.60;1.27;;;;;;;;;;5086808;28;20035;-65
2021/11/10 01:14:47;;;;;;;4.10;1.10;;;;;;;;;;5086016;28;20028;-65
2021/11/10 01:17:14;;;;;;;2.17;1.30;;;;;;;;;;5087270;28;20024;-65
2021/11/10 01:19:54;;;;;;;5.20;1.80;;;;;;;;;;5089299;28;20040;-64
2021/11/10 01:22:28;;;;;;;3.17;1.30;;;;;;;;;;5092060;28;20054;-63
2021/11/10 01:24:58;;;;;;;1.93;1.20;;;;;;;;;;5091561;28;20024;-64
2021/11/10 01:27:30;;;;;;;2.10;1.30;;;;;;;;;;5092151;28;20981;-64
2021/11/10 01:30:04;;;;;;;2.27;1.30;;;;;;;;;;5091809;28;21277;-63
2021/11/10 01:32:39;;;;;;;3.38;1.42;;;;;;;;;;5088595;28;20078;-64
2021/11/10 01:35:07;;;;;;;1.58;1.10;;;;;;;;;;5085797;28;20446;-64
2021/11/10 01:37:36;;;;;;;2.83;1.53;;;;;;;;;;5085235;28;20031;-64
2021/11/10 01:40:05;;;;;;;3.00;1.40;;;;;;;;;;5085120;28;20035;-64
2021/11/10 01:42:33;;;;;;;1.77;1.10;;;;;;;;;;5089411;28;20463;-64
2021/11/10 01:45:01;;;;;;;1.47;1.10;;;;;;;;;;5090512;28;20032;-64
2021/11/10 01:47:32;;;;;;;2.20;1.10;;;;;;;;;;5090999;28;20074;-64
2021/11/10 01:49:59;;;;;;;2.13;1.20;;;;;;;;;;5091609;28;20028;-64
2021/11/10 01:52:32;;;;;;;2.53;1.40;;;;;;;;;;5091586;28;20066;-64
2021/11/10 01:55:12;;;;;;;2.40;1.13;;;;;;;;;;5087945;28;20424;-64
2021/11/10 01:57:41;;;;;;;3.93;1.30;;;;;;;;;;5086619;28;20112;-63
2021/11/10 02:00:31;;;;;;;5.47;1.70;;;;;;;;;;5086285;28;20032;-64
2021/11/10 02:03:01;;;;;;;3.93;1.67;;;;;;;;;;5073511;28;20040;-64
2021/11/10 02:05:48;;;;;;;2.07;1.23;;;;;;;;;;5090687;28;20117;-64
2021/11/10 02:08:25;;;;;;;2.47;1.57;;;;;;;;;;5077354;28;20064;-64
2021/11/10 02:10:53;;;;;;;2.00;1.20;;;;;;;;;;5085655;28;20038;-64
2021/11/10 02:13:25;;;;;;;3.40;1.60;;;;;;;;;;5087553;28;20052;-65
2021/11/10 02:15:55;;;;;;;2.30;1.30;;;;;;;;;;5071407;28;20020;-65
2021/11/10 02:18:26;;;;;;;3.93;1.30;;;;;;;;;;5066434;28;20035;-65
2021/11/10 02:21:00;;;;;;;2.53;1.40;;;;;;;;;;5066243;28;20021;-64
2021/11/10 02:23:27;;;;;;;5.30;1.73;;;;;;;;;;5066133;28;20353;-64
2021/11/10 02:26:02;;;;;;;3.30;1.60;;;;;;;;;;5065761;28;20566;-64
2021/11/10 02:28:33;;;;;;;3.85;1.27;;;;;;;;;;5075217;28;20036;-64
2021/11/10 02:31:10;;;;;;;3.20;1.57;;;;;;;;;;5075008;28;20020;-64
2021/11/10 02:33:38;;;;;;;2.50;1.30;;;;;;;;;;5075250;28;20024;-64
2021/11/10 02:36:17;;;;;;;5.33;1.90;;;;;;;;;;5088609;28;20024;-65
2021/11/10 02:38:59;;;;;;;6.33;1.93;;;;;;;;;;5094091;28;20082;-64
2021/11/10 02:41:40;;;;;;;6.97;2.37;;;;;;;;;;5089738;28;20020;-64
2021/11/10 02:44:08;;;;;;;10.13;2.73;;;;;;;;;;5090148;28;20044;-64
2021/11/10 02:46:48;;;;;;;3.00;1.80;;;;;;;;;;5090100;28;20427;-64
2021/11/10 02:49:29;;;;;;;5.47;3.00;;;;;;;;;;5091867;28;20039;-64
2021/11/10 02:51:57;;;;;;;6.87;2.60;;;;;;;;;;5094953;28;20027;-64
2021/11/10 02:54:24;;;;;;;6.90;2.40;;;;;;;;;;5094729;28;20115;-64
2021/11/10 02:56:54;;;;;;;7.83;2.73;;;;;;;;;;5093151;28;20046;-64
2021/11/10 02:59:25;;;;;;;8.13;2.80;;;;;;;;;;5091950;28;20059;-65
2021/11/10 03:01:53;;;;;;;9.13;2.43;;;;;;;;;;5090280;28;20047;-64
2021/11/10 03:04:21;;;;;;;14.40;2.90;;;;;;;;;;5088912;28;20031;-64
2021/11/10 03:06:49;;;;;;;6.13;2.90;;;;;;;;;;5079561;28;20111;-63
2021/11/10 03:09:17;;;;;;;7.43;3.17;;;;;;;;;;5069348;28;20031;-63
2021/11/10 03:11:51;;;;;;;11.37;3.70;;;;;;;;;;5071603;28;20490;-63
2021/11/10 03:14:22;;;;;;;7.17;3.40;;;;;;;;;;5074541;28;20067;-63
2021/11/10 03:16:52;;;;;;;12.17;4.10;;;;;;;;;;5074171;28;20029;-63
2021/11/10 03:19:25;;;;;;;15.35;4.75;;;;;;;;;;5074395;28;20029;-63
2021/11/10 03:21:55;;;;;;;6.93;2.63;;;;;;;;;;5074421;28;20016;-64
2021/11/10 03:24:23;;;;;;;8.33;2.87;;;;;;;;;;5071215;28;20392;-63
2021/11/10 03:26:51;;;;;;;10.17;3.57;;;;;;;;;;5068973;28;20024;-63
2021/11/10 03:29:18;;;;;;;5.53;3.53;;;;;;;;;;5069007;28;20032;-63
2021/11/10 03:31:46;;;;;;;6.00;3.30;;;;;;;;;;5068898;28;20027;-63
2021/11/10 03:34:13;;;;;;;10.70;4.93;;;;;;;;;;5071678;28;20035;-65
2021/11/10 03:36:42;;;;;;;6.43;4.00;;;;;;;;;;5091511;28;20024;-65
2021/11/10 03:39:12;;;;;;;9.50;3.50;;;;;;;;;;5094331;28;20418;-65
2021/11/10 03:41:42;;;;;;;4.30;2.53;;;;;;;;;;5094169;28;20028;-63
2021/11/10 03:44:11;;;;;;;5.17;2.57;;;;;;;;;;5091400;28;20505;-62
2021/11/10 03:46:42;;;;;;;8.70;2.83;;;;;;;;;;5091622;28;20419;-62
2021/11/10 03:49:15;;;;;;;7.13;2.73;;;;;;;;;;5088666;28;20028;-64
2021/11/10 03:51:42;;;;;;;4.70;2.60;;;;;;;;;;5088732;28;20024;-65
2021/11/10 03:54:09;;;;;;;8.43;2.73;;;;;;;;;;5073732;28;20029;-65
2021/11/10 03:56:36;;;;;;;4.60;2.60;;;;;;;;;;5071126;28;20356;-65
2021/11/10 03:59:04;;;;;;;4.50;2.87;;;;;;;;;;5073365;28;20031;-65
2021/11/10 04:01:30;;;;;;;3.83;2.70;;;;;;;;;;5073683;28;20095;-65
2021/11/10 04:03:57;;;;;;;3.97;2.37;;;;;;;;;;5074594;28;20040;-64
2021/11/10 04:06:24;;;;;;;4.37;3.00;;;;;;;;;;5079628;28;20062;-62
2021/11/10 04:08:52;;;;;;;7.67;2.40;;;;;;;;;;5090679;28;20387;-63
2021/11/10 04:11:20;;;;;;;4.33;2.50;;;;;;;;;;5088555;28;20024;-63
2021/11/10 04:13:47;;;;;;;6.00;2.60;;;;;;;;;;5087598;28;20646;-63
2021/11/10 04:16:20;;;;;;;3.70;2.13;;;;;;;;;;5087800;28;20020;-61
2021/11/10 04:18:48;;;;;;;3.00;1.97;;;;;;;;;;5090355;28;20034;-62
2021/11/10 04:21:14;;;;;;;3.93;2.37;;;;;;;;;;5093270;28;20024;-61
2021/11/10 04:23:41;;;;;;;3.00;1.90;;;;;;;;;;5085458;28;20028;-62
2021/11/10 04:26:10;;;;;;;4.53;2.40;;;;;;;;;;5089570;28;20494;-62
2021/11/10 04:28:36;;;;;;;5.60;2.30;;;;;;;;;;5081237;28;20036;-62
2021/11/10 04:31:04;;;;;;;3.10;2.23;;;;;;;;;;5088664;28;20035;-62
2021/11/10 04:33:35;;;;;;;3.83;2.53;;;;;;;;;;5086778;28;20030;-62
2021/11/10 04:36:02;;;;;;;3.73;2.47;;;;;;;;;;5087703;28;20166;-62
2021/11/10 04:38:29;;;;;;;4.33;2.60;;;;;;;;;;5087878;28;20059;-62
2021/11/10 04:40:58;;;;;;;3.30;2.20;;;;;;;;;;5089875;28;20031;-62
2021/11/10 04:43:26;;;;;;;4.17;2.77;;;;;;;;;;5092164;28;20112;-62
2021/11/10 04:46:04;;;;;;;5.80;2.90;;;;;;;;;;5092088;28;20475;-62
2021/11/10 04:48:33;;;;;;;3.27;2.10;;;;;;;;;;5092109;28;20035;-62
2021/11/10 04:51:04;;;;;;;3.90;2.40;;;;;;;;;;5092789;28;20475;-62
2021/11/10 04:53:31;;;;;;;4.73;2.30;;;;;;;;;;5089217;28;20085;-62
2021/11/10 04:55:59;;;;;;;3.63;2.47;;;;;;;;;;5087583;28;20024;-62
2021/11/10 04:58:27;;;;;;;3.80;2.07;;;;;;;;;;5086940;28;20060;-62
2021/11/10 05:00:55;;;;;;;3.73;1.97;;;;;;;;;;5085948;28;20043;-62
2021/11/10 05:03:23;;;;;;;4.17;2.20;;;;;;;;;;5088899;28;20554;-62
2021/11/10 05:05:52;;;;;;;3.73;2.00;;;;;;;;;;5092651;28;20039;-61
2021/11/10 05:08:25;;;;;;;4.20;2.27;;;;;;;;;;5092456;28;20115;-61
2021/11/10 05:10:53;;;;;;;9.83;2.70;;;;;;;;;;5092501;28;20413;-62
2021/11/10 05:13:22;;;;;;;10.60;3.17;;;;;;;;;;5089775;28;20012;-62
2021/11/10 05:15:49;;;;;;;6.83;3.37;;;;;;;;;;5069283;28;20522;-62
2021/11/10 05:18:17;;;;;;;6.73;3.63;;;;;;;;;;5067009;28;20073;-62
2021/11/10 05:20:48;;;;;;;7.50;3.20;;;;;;;;;;5066969;28;20028;-61
2021/11/10 05:23:20;;;;;;;11.33;4.03;;;;;;;;;;5067724;28;20031;-62
2021/11/10 05:25:48;;;;;;;6.87;3.63;;;;;;;;;;5089091;28;20030;-62
2021/11/10 05:28:16;;;;;;;11.27;4.83;;;;;;;;;;5092261;28;20043;-62
2021/11/10 05:30:45;;;;;;;7.43;3.83;;;;;;;;;;5091826;28;20035;-61
2021/11/10 05:33:13;;;;;;;7.50;3.57;;;;;;;;;;5091371;28;20024;-62
2021/11/10 05:35:41;;;;;;;8.37;3.80;;;;;;;;;;5071925;28;20043;-62
2021/11/10 05:38:09;;;;;;;11.50;3.67;;;;;;;;;;5069127;28;20028;-62
2021/11/10 05:40:37;;;;;;;22.63;4.27;;;;;;;;;;5066692;28;20048;-62
2021/11/10 05:43:09;;;;;;;6.97;2.70;;;;;;;;;;5066740;28;20090;-62
2021/11/10 05:45:40;;;;;;;5.70;2.90;;;;;;;;;;5086652;28;20526;-61
2021/11/10 05:48:10;;;;;;;6.97;3.13;;;;;;;;;;5088984;28;20119;-61
2021/11/10 05:50:45;;;;;;;5.57;2.90;;;;;;;;;;5092349;28;20016;-61
2021/11/10 05:53:14;;;;;;;5.43;2.92;;;;;;;;;;5090993;28;20020;-62
2021/11/10 05:55:42;;;;;;;8.63;3.50;;;;;;;;;;5070190;28;20031;-61
2021/11/10 05:58:11;;;;;;;7.90;3.17;;;;;;;;;;5071947;28;20043;-61
2021/11/10 06:00:40;;;;;;;7.47;3.67;;;;;;;;;;5070638;28;20028;-61
2021/11/10 06:03:10;;;;;;;10.13;3.80;;;;;;;;;;5070596;28;20119;-61
2021/11/10 06:05:38;;;;;;;6.20;3.37;;;;;;;;;;5089903;28;20031;-62
2021/11/10 06:08:06;;;;;;;7.57;3.57;;;;;;;;;;5090232;28;20303;-61
2021/11/10 06:10:42;;;;;;;5.73;3.03;;;;;;;;;;5093055;28;20272;-61
2021/11/10 06:13:27;;;;;;;5.73;3.07;;;;;;;;;;5095960;28;20776;-61
2021/11/10 06:16:08;;;;;;;4.72;2.55;;;;;;;;;;5075300;28;20285;-62
2021/11/10 06:18:46;;;;;;;;;;;;;;;;;;;;;
2021/11/10 06:21:23;;;;;;;9.47;2.47;;;;;;;;;;5068924;28;20262;-61
2021/11/10 06:23:55;;;;;;;7.77;3.60;;;;;;;;;;5074527;28;20288;-61
2021/11/10 06:29:46;;;;;;;;;;;;;;;;;;;;;
2021/11/10 06:32:27;;;;;;;4.43;2.33;;;;;;;;;;5089064;28;20600;-61
2021/11/10 06:34:54;;;;;;;5.03;2.65;;;;;;;;;;5084651;28;20270;-61
2021/11/10 06:37:25;;;;;;;4.70;2.50;;;;;;;;;;5086792;28;20020;-61
2021/11/10 06:40:01;;;;;;;3.77;2.13;;;;;;;;;;5094908;28;20245;-61
2021/11/10 06:42:29;;;;;;;8.90;2.93;;;;;;;;;;5095384;28;20356;-62
2021/11/10 06:45:00;;;;;;;4.90;2.50;;;;;;;;;;5091983;28;20785;-61
2021/11/10 06:47:28;;;;;;;3.77;1.83;;;;;;;;;;5089938;28;20298;-61
2021/11/10 06:49:56;;;;;;;3.40;2.00;;;;;;;;;;5089998;28;20346;-61
2021/11/10 06:52:24;;;;;;;4.50;2.30;;;;;;;;;;5089975;28;20253;-61
2021/11/10 06:54:52;;;;;;;4.40;2.23;;;;;;;;;;5082437;28;20640;-61
2021/11/10 06:57:20;;;;;;;6.83;2.20;;;;;;;;;;5074454;28;20823;-61
2021/11/10 06:59:51;;;;;;;4.00;1.97;;;;;;;;;;5074889;28;20262;-61
2021/11/10 07:02:19;;;;;;;4.53;1.93;;;;;;;;;;5075221;28;20662;-61
2021/11/10 07:04:46;;;;;;;6.07;2.00;;;;;;;;;;5081907;28;20759;-61
2021/11/10 07:07:14;;;;;;;3.17;1.73;;;;;;;;;;5092272;28;20291;-61
2021/11/10 07:09:45;;;;;;;6.00;1.97;;;;;;;;;;5089249;28;20267;-61
2021/11/10 07:12:20;;;;;;;3.37;1.87;;;;;;;;;;5088453;28;20264;-61
2021/11/10 07:14:51;;;;;;;3.87;1.97;;;;;;;;;;5081256;28;20285;-61
2021/11/10 07:17:25;;;;;;;4.77;2.20;;;;;;;;;;5071313;28;20253;-61
2021/11/10 07:19:53;;;;;;;3.77;2.37;;;;;;;;;;5074394;28;20336;-61
2021/11/10 07:22:38;;;;;;;3.87;2.23;;;;;;;;;;5074154;28;20254;-61
2021/11/10 07:25:13;;;;;;;3.47;1.90;;;;;;;;;;5075226;28;20684;-61
2021/11/10 07:27:44;;;;;;;3.10;1.83;;;;;;;;;;5074116;28;20033;-61
2021/11/10 07:30:14;;;;;;;6.70;2.13;;;;;;;;;;5069470;28;20481;-61
2021/11/10 07:32:59;;;;;;;3.70;1.93;;;;;;;;;;5068618;28;20261;-61
2021/11/10 07:35:41;;;;;;;4.40;2.30;;;;;;;;;;5081112;28;20337;-62
2021/11/10 07:38:15;;;;;;;4.13;2.50;;;;;;;;;;5088510;28;20028;-61
2021/11/10 07:40:45;;;;;;;4.17;2.13;;;;;;;;;;5093754;28;20261;-61
2021/11/10 07:43:28;;;;;;;3.50;1.77;;;;;;;;;;5093867;28;20348;-61
2021/11/10 07:46:00;;;;;;;2.87;1.60;;;;;;;;;;5093150;28;20331;-61
2021/11/10 07:48:35;;;;;;;3.80;1.60;;;;;;;;;;5072900;28;20342;-61
2021/11/10 07:51:02;;;;;;;4.23;2.37;;;;;;;;;;5073260;28;20348;-61
2021/11/10 07:56:24;;;;;;;4.30;2.00;;;;;;;;;;5076050;28;20276;-61
2021/11/10 07:58:54;;;;;;;3.42;1.77;;;;;;;;;;5088739;28;20735;-61
2021/11/10 08:01:32;;;;;;;3.93;2.13;;;;;;;;;;5089435;28;20020;-61
2021/11/10 08:04:05;;;;;;;3.70;1.83;;;;;;;;;;5093564;28;20271;-61
2021/11/10 08:06:36;;;;;;;3.57;2.10;;;;;;;;;;5082919;28;20262;-61
2021/11/10 08:09:17;;;;;;;3.30;1.90;;;;;;;;;;5072789;28;20289;-61
2021/11/10 08:11:58;;;;;;;;;;;;;;;;;;;;;
2021/11/10 08:14:41;;;;;;;4.07;2.00;;;;;;;;;;5070383;28;20282;-61
2021/11/10 08:17:18;;;;;;;2.47;1.33;;;;;;;;;;5082596;28;20264;-61
2021/11/10 08:19:54;;;;;;;3.17;1.80;;;;;;;;;;5087806;28;20267;-61
2021/11/10 08:22:31;;;;;;;2.57;1.40;;;;;;;;;;5088181;28;20629;-61
2021/11/10 08:25:01;;;;;;;1.93;1.20;;;;;;;;;;5091200;28;20256;-62
2021/11/10 08:27:41;;;;;;;1.93;1.23;;;;;;;;;;5073897;28;20335;-61
2021/11/10 08:30:14;;;;;;;4.57;1.33;;;;;;;;;;5072484;28;20265;-61
2021/11/10 08:32:45;;;;;;;2.03;1.33;;;;;;;;;;5072791;28;20261;-61
2021/11/10 08:35:21;;;;;;;2.13;1.20;;;;;;;;;;5072502;28;20761;-61
2021/11/10 08:38:01;;;;;;;2.87;1.67;;;;;;;;;;5087312;28;20272;-61
2021/11/10 08:40:28;;;;;;;2.50;1.50;;;;;;;;;;5087968;28;20372;-61
2021/11/10 08:42:59;;;;;;;2.00;1.20;;;;;;;;;;5087073;28;20269;-61
2021/11/10 08:45:31;;;;;;;2.03;1.20;;;;;;;;;;5087581;28;20252;-61
2021/11/10 08:48:05;;;;;;;2.07;1.23;;;;;;;;;;5092869;28;20627;-60
2021/11/10 08:50:55;;;;;;;2.53;1.30;;;;;;;;;;5092636;28;20607;-61
2021/11/10 08:53:28;;;;;;;1.87;1.03;;;;;;;;;;5012256;28;20279;-61
2021/11/10 08:56:04;;;;;;;2.47;1.30;;;;;;;;;;5010659;28;20347;-60
2021/11/10 08:58:34;;;;;;;2.77;1.77;;;;;;;;;;5027771;28;20738;-61
2021/11/10 09:01:07;;;;;;;4.23;2.07;;;;;;;;;;5024699;28;20263;-60
2021/11/10 09:03:43;;;;;;;3.30;1.17;;;;;;;;;;5023503;28;20274;-61
2021/11/10 09:06:19;;;;;;;3.13;1.50;;;;;;;;;;5005057;28;20275;-61
2021/11/10 09:09:19;;;;;;;2.70;1.50;;;;;;;;;;5006898;28;20291;-60
2021/11/10 09:12:14;;;;;;;3.00;1.60;;;;;;;;;;5020368;28;20346;-60
2021/11/10 09:14:44;;;;;;;2.90;1.70;;;;;;;;;;5010141;28;20266;-60
2021/11/10 09:17:24;;;;;;;4.37;1.50;;;;;;;;;;5010297;28;20111;-60
2021/11/10 09:19:59;;;;;;;2.67;1.50;;;;;;;;;;5009792;28;20782;-61
2021/11/10 09:22:25;;;;;;;;;;;;;;;;;;5005248;28;20286;-61
2021/11/10 09:24:55;;;;;;;2.73;1.47;;;;;;;;;;5021009;28;20386;-61
2021/11/10 09:27:29;;;;;;;2.37;1.17;;;;;;;;;;5021926;28;20286;-61
2021/11/10 09:30:06;;;;;;;4.67;1.50;;;;;;;;;;5036661;28;20261;-61
2021/11/10 09:32:55;;;;;;;2.43;1.50;;;;;;;;;;5072425;28;20318;-61
2021/11/10 09:35:36;;;;;;;3.07;1.50;;;;;;;;;;5081934;28;20268;-61
2021/11/10 09:38:04;;;;;;;2.10;1.30;;;;;;;;;;5074701;28;20604;-61
2021/11/10 09:40:33;;;;;;;1.57;1.00;;;;;;;;;;5071390;28;20281;-61
2021/11/10 09:43:28;;;;;;;3.53;1.80;;;;;;;;;;5081588;28;20325;-61
2021/11/10 09:46:14;;;;;;;2.67;1.60;;;;;;;;;;5085821;28;20313;-61
2021/11/10 09:49:04;;;;;;;2.03;1.23;;;;;;;;;;5086635;28;20478;-61
2021/11/10 09:51:35;;;;;;;2.70;1.20;;;;;;;;;;5083519;28;20065;-61
2021/11/10 09:54:19;;;;;;;;;;;;;;;;;;;;;
2021/11/10 09:56:56;;;;;;;2.95;1.60;;;;;;;;;;5091685;28;20263;-60
2021/11/10 09:59:36;;;;;;;2.03;1.20;;;;;;;;;;5091672;28;20024;-61
2021/11/10 10:05:05;;;;;;;3.27;1.70;;;;;;;;;;5069513;28;20295;-60
2021/11/10 10:07:39;;;;;;;2.60;1.57;;;;;;;;;;5066349;28;20372;-61
2021/11/10 10:10:10;;;;;;;2.90;1.60;;;;;;;;;;5066564;28;20254;-61
2021/11/10 10:12:41;;;;;;;2.00;1.13;;;;;;;;;;5077441;28;20260;-60
2021/11/10 10:15:09;;;;;;;3.17;1.40;;;;;;;;;;5087613;28;20253;-60
2021/11/10 10:17:41;;;;;;;3.53;1.70;;;;;;;;;;5091113;28;20253;-60
2021/11/10 10:20:29;;;;;;;2.00;1.30;;;;;;;;;;5071594;28;20273;-60
2021/11/10 10:22:58;;;;;;;2.67;1.57;;;;;;;;;;5064121;28;20304;-60
2021/11/10 10:25:38;;;;;;;2.63;1.50;;;;;;;;;;5071508;28;20252;-60
2021/11/10 10:28:09;;;;;;;2.60;1.47;;;;;;;;;;5070464;28;20639;-61
2021/11/10 10:30:45;;;;;;;2.57;1.60;;;;;;;;;;5086365;28;20797;-60
2021/11/10 10:33:16;;;;;;;2.73;1.47;;;;;;;;;;5086448;28;20256;-60
2021/11/10 10:35:49;;;;;;;2.53;1.50;;;;;;;;;;5086129;28;20260;-61
2021/11/10 10:38:19;;;;;;;2.27;1.30;;;;;;;;;;5088078;28;20257;-60
2021/11/10 10:40:47;;;;;;;3.73;1.60;;;;;;;;;;5090556;28;20263;-60
2021/11/10 10:43:15;;;;;;;3.57;1.40;;;;;;;;;;5091687;28;20309;-60
2021/11/10 10:45:50;;;;;;;2.67;1.57;;;;;;;;;;5091490;28;20249;-60
2021/11/10 10:48:19;;;;;;;2.75;1.40;;;;;;;;;;5090978;28;20289;-61
2021/11/10 10:51:09;;;;;;;3.20;1.20;;;;;;;;;;5071481;28;20020;-60
2021/11/10 10:53:39;;;;;;;2.23;1.33;;;;;;;;;;5064318;28;20764;-60
2021/11/10 10:56:18;;;;;;;3.13;1.40;;;;;;;;;;5069350;28;20262;-60
2021/11/10 10:58:49;;;;;;;3.60;1.10;;;;;;;;;;5076078;28;20341;-60
2021/11/10 11:01:20;;;;;;;2.87;1.27;;;;;;;;;;5094124;28;20284;-61
2021/11/10 11:03:58;;;;;;;4.20;1.53;;;;;;;;;;5093078;28;20696;-60
2021/11/10 11:06:40;;;;;;;3.57;1.50;;;;;;;;;;5092561;28;20618;-60
2021/11/10 11:09:15;;;;;;;2.10;1.10;;;;;;;;;;5093503;28;20337;-60
2021/11/10 11:11:56;;;;;;;2.80;1.23;;;;;;;;;;5093860;28;20263;-60
2021/11/10 11:14:36;;;;;;;2.27;1.30;;;;;;;;;;5088847;28;20022;-60
2021/11/10 11:17:25;;;;;;;2.80;1.30;;;;;;;;;;5069560;28;20265;-60
2021/11/10 11:19:58;;;;;;;2.67;1.10;;;;;;;;;;5089499;28;20271;-60
2021/11/10 11:22:32;;;;;;;2.67;1.07;;;;;;;;;;5090630;28;20265;-60
2021/11/10 11:25:19;;;;;;;2.03;1.10;;;;;;;;;;5094339;28;20616;-60
2021/11/10 11:27:57;;;;;;;2.17;1.20;;;;;;;;;;5088708;28;20376;-60
2021/11/10 11:30:26;;;;;;;12.00;1.70;;;;;;;;;;5074010;28;20597;-60
2021/11/10 11:33:08;;;;;;;2.87;1.10;;;;;;;;;;5080761;28;20276;-60
2021/11/10 11:35:46;;;;;;;1.90;1.10;;;;;;;;;;5090043;28;20257;-60
2021/11/10 11:38:30;;;;;;;2.40;1.30;;;;;;;;;;5088922;28;20290;-60
2021/11/10 11:41:00;;;;;;;1.13;0.80;;;;;;;;;;5089034;28;20334;-60
2021/11/10 11:43:35;;;;;;;2.10;1.17;;;;;;;;;;5078432;28;20265;-60
2021/11/10 11:46:05;;;;;;;1.92;1.13;;;;;;;;;;5072737;28;20783;-60
2021/11/10 11:48:33;;;;;;;1.40;0.87;;;;;;;;;;5073113;28;20036;-60
2021/11/10 11:51:08;;;;;;;2.20;1.20;;;;;;;;;;5073735;28;20620;-60
2021/11/10 11:53:36;;;;;;;2.57;1.17;;;;;;;;;;5074109;28;20273;-60
2021/11/10 11:56:09;;;;;;;1.63;0.97;;;;;;;;;;5073311;28;20258;-61
2021/11/10 11:58:38;;;;;;;3.67;1.20;;;;;;;;;;5068496;28;20258;-60
2021/11/10 12:01:15;;;;;;;1.90;1.00;;;;;;;;;;5068306;28;20336;-60
2021/11/10 12:03:46;;;;;;;4.27;1.40;;;;;;;;;;5080105;28;20321;-60
2021/11/10 12:06:14;;;;;;;1.53;0.93;;;;;;;;;;5089135;28;20325;-60
2021/11/10 12:08:52;;;;;;;2.20;1.10;;;;;;;;;;5093823;28;20736;-60
2021/11/10 12:11:48;;;;;;;1.97;1.03;;;;;;;;;;5093210;28;20257;-60
2021/11/10 12:14:19;;;;;;;2.17;1.20;;;;;;;;;;5063750;28;20322;-60
2021/11/10 12:17:04;;;;;;;7.23;1.77;;;;;;;;;;5073311;28;20273;-60
2021/11/10 12:19:34;;;;;;;2.40;1.00;;;;;;;;;;5070305;28;20249;-60
2021/11/10 12:22:08;;;;;;;2.93;1.60;;;;;;;;;;5067960;28;20025;-60
2021/11/10 12:24:54;;;;;;;3.38;1.83;;;;;;;;;;5074773;28;20279;-60
2021/11/10 12:27:24;;;;;;;4.27;2.03;;;;;;;;;;5087994;28;20032;-60
2021/11/10 12:29:59;;;;;;;7.13;3.17;;;;;;;;;;5091680;28;20261;-60
2021/11/10 12:32:49;;;;;;;6.38;3.00;;;;;;;;;;5093216;28;20261;-61
2021/11/10 12:35:26;;;;;;;9.97;3.30;;;;;;;;;;5091078;28;20077;-60
2021/11/10 12:37:57;;;;;;;7.63;2.63;;;;;;;;;;5092918;28;20603;-60
2021/11/10 12:40:33;;;;;;;3.80;2.20;;;;;;;;;;5092918;28;20334;-59
2021/11/10 12:43:28;;;;;;;6.70;2.33;;;;;;;;;;5087629;28;20306;-60
2021/11/10 12:46:05;;;;;;;5.43;2.13;;;;;;;;;;5086447;28;20276;-60
2021/11/10 12:48:34;;;;;;;6.83;2.70;;;;;;;;;;5087492;28;20323;-60
2021/11/10 12:51:34;;;;;;;9.97;2.83;;;;;;;;;;5088643;28;20356;-60
2021/11/10 12:54:06;;;;;;;6.13;2.40;;;;;;;;;;5091540;28;20318;-60
2021/11/10 12:56:58;;;;;;;6.00;2.57;;;;;;;;;;5072195;28;20268;-60
2021/11/10 12:59:37;;;;;;;5.97;2.50;;;;;;;;;;5072645;28;20257;-61
2021/11/10 13:02:23;;;;;;;11.27;2.93;;;;;;;;;;5072585;28;20592;-60
2021/11/10 13:05:10;;;;;;;7.10;2.30;;;;;;;;;;5067317;28;20258;-62
2021/11/10 13:08:00;;;;;;;4.03;2.00;;;;;;;;;;5073237;28;20891;-61
2021/11/10 13:10:35;;;;;;;3.60;1.60;;;;;;;;;;5086584;28;20303;-61
2021/11/10 13:13:16;;;;;;;3.95;2.33;;;;;;;;;;5087862;28;20730;-61
2021/11/10 13:15:48;;;;;;;3.97;2.23;;;;;;;;;;5092093;28;20024;-61
2021/11/10 13:18:25;;;;;;;11.70;5.53;;;;;;;;;;5080880;28;20264;-62
2021/11/10 13:21:13;;;;;;;21.07;8.20;;;;;;;;;;5071752;28;20272;-61
2021/11/10 13:23:46;;;;;;;14.47;7.30;;;;;;;;;;5068790;28;20318;-62
2021/11/10 13:26:20;;;;;;;14.47;7.07;;;;;;;;;;5068570;28;20260;-62
2021/11/10 13:28:54;;;;;;;15.13;6.50;;;;;;;;;;5070928;28;20350;-62
2021/11/10 13:31:23;;;;;;;10.95;5.50;;;;;;;;;;5086736;28;20273;-62
2021/11/10 13:33:51;;;;;;;10.70;5.77;;;;;;;;;;5080253;28;20024;-62
2021/11/10 13:36:29;;;;;;;14.90;5.20;;;;;;;;;;5072184;28;20262;-62
2021/11/10 13:39:05;;;;;;;9.40;4.50;;;;;;;;;;5092177;28;20652;-62
2021/11/10 13:41:51;;;;;;;11.13;6.40;;;;;;;;;;5092166;28;20308;-62
2021/11/10 13:44:25;;;;;;;9.83;5.53;;;;;;;;;;5091255;28;20274;-62
2021/11/10 13:46:57;;;;;;;7.63;5.17;;;;;;;;;;5091688;28;20265;-62
2021/11/10 13:49:26;;;;;;;7.90;4.57;;;;;;;;;;5086853;28;20288;-62
2021/11/10 13:52:02;;;;;;;12.30;5.13;;;;;;;;;;5086587;28;20268;-62
2021/11/10 13:54:32;;;;;;;10.27;4.83;;;;;;;;;;5084619;28;20268;-62
2021/11/10 13:57:11;;;;;;;10.80;4.33;;;;;;;;;;5085993;28;20269;-62
2021/11/10 13:59:41;;;;;;;8.23;4.63;;;;;;;;;;5091805;28;20252;-62
2021/11/10 14:02:13;;;;;;;7.53;4.43;;;;;;;;;;5091662;28;20252;-62
2021/11/10 14:04:43;;;;;;;8.70;3.60;;;;;;;;;;5076407;28;20273;-62
2021/11/10 14:07:24;;;;;;;7.47;3.50;;;;;;;;;;5070987;28;20086;-62
2021/11/10 14:09:54;;;;;;;8.07;3.70;;;;;;;;;;5071542;28;20280;-62
2021/11/10 14:12:47;;;;;;;10.60;4.00;;;;;;;;;;5086343;28;20024;-62
2021/11/10 14:15:21;;;;;;;7.30;3.53;;;;;;;;;;5085350;28;20173;-62
2021/11/10 14:18:01;;;;;;;6.70;2.70;;;;;;;;;;5086172;28;20103;-63
2021/11/10 14:20:31;;;;;;;7.47;2.80;;;;;;;;;;5087447;28;20108;-62
2021/11/10 14:22:58;;;;;;;7.30;3.27;;;;;;;;;;5095729;28;20433;-62
2021/11/10 14:25:33;;;;;;;4.73;3.00;;;;;;;;;;5088364;28;20058;-62
2021/11/10 14:28:14;;;;;;;7.83;3.80;;;;;;;;;;5075011;28;20036;-62
2021/11/10 14:30:45;;;;;;;7.67;4.27;;;;;;;;;;5075314;28;20405;-62
2021/11/10 14:33:17;;;;;;;10.13;5.20;;;;;;;;;;5071192;28;20062;-63
2021/11/10 14:35:53;;;;;;;9.90;4.90;;;;;;;;;;5078405;28;20400;-63
2021/11/10 14:38:27;;;;;;;11.80;5.40;;;;;;;;;;5089815;28;20382;-62
2021/11/10 14:41:09;;;;;;;8.35;5.05;;;;;;;;;;5090095;28;20061;-63
2021/11/10 14:43:46;;;;;;;9.07;4.87;;;;;;;;;;5094556;28;20020;-63
2021/11/10 14:46:19;;;;;;;7.87;4.47;;;;;;;;;;5094382;28;20028;-62
2021/11/10 14:48:50;;;;;;;10.17;4.50;;;;;;;;;;5095104;28;20039;-63
2021/11/10 14:51:34;;;;;;;7.63;4.27;;;;;;;;;;5095092;28;20024;-63
2021/11/10 14:54:05;;;;;;;11.90;6.17;;;;;;;;;;5094285;28;20028;-63
2021/11/10 14:56:34;;;;;;;8.20;5.00;;;;;;;;;;5086152;28;20096;-62
2021/11/10 14:59:04;;;;;;;9.83;5.17;;;;;;;;;;5089400;28;20036;-63
2021/11/10 15:01:32;;;;;;;11.60;5.67;;;;;;;;;;5089897;28;20028;-63
2021/11/10 15:04:04;;;;;;;10.87;4.67;;;;;;;;;;5089680;28;20098;-63
2021/11/10 15:06:36;;;;;;;9.47;4.70;;;;;;;;;;5082273;28;20037;-63
2021/11/10 15:09:12;;;;;;;6.83;4.00;;;;;;;;;;5094349;28;20542;-63
2021/11/10 15:11:38;;;;;;;;;;;;;;;;;;5094955;28;20070;-63
2021/11/10 15:14:06;;;;;;;8.33;3.83;;;;;;;;;;5094343;28;19957;-63
2021/11/10 15:16:34;;;;;;;8.27;3.77;;;;;;;;;;5093169;28;20615;-63
2021/11/10 15:19:17;;;;;;;6.10;3.77;;;;;;;;;;5070272;28;20116;-63
2021/11/10 15:21:45;;;;;;;16.57;3.50;;;;;;;;;;5069424;28;20028;-63
2021/11/10 15:24:16;;;;;;;4.43;3.07;;;;;;;;;;5069024;28;20082;-63
2021/11/10 15:26:48;;;;;;;6.57;4.13;;;;;;;;;;5070286;28;20016;-63
2021/11/10 15:29:16;;;;;;;8.60;4.47;;;;;;;;;;5073883;28;20071;-63